sensor_id;sensor_type;location;lat;lon;timestamp;P1;durP1;ratioP1;P2;durP2;ratioP2
20629;SDS011;17386;43.846;25.950;2022-12-24T00:00:12;59.80;;;23.42;;
20629;SDS011;17386;43.846;25.950;2022-12-24T00:02:38;62.25;;;23.80;;
20629;SDS011;17386;43.846;25.950;2022-12-24T00:05:05;53.65;;;21.58;;
20629;SDS011;17386;43.846;25.950;2022-12-24T00:07:30;61.53;;;23.60;;
20629;SDS011;17386;43.846;25.950;2022-12-24T00:09:56;59.15;;;23.30;;
20629;SDS011;17386;43.846;25.950;2022-12-24T00:12:21;66.50;;;25.10;;
20629;SDS011;17386;43.846;25.950;2022-12-24T00:14:47;55.47;;;22.48;;
20629;SDS011;17386;43.846;25.950;2022-12-24T00:17:12;50.75;;;21.17;;
20629;SDS011;17386;43.846;25.950;2022-12-24T00:19:37;49.25;;;20.95;;
20629;SDS011;17386;43.846;25.950;2022-12-24T00:22:03;52.65;;;21.48;;
20629;SDS011;17386;43.846;25.950;2022-12-24T00:24:28;51.72;;;21.23;;
20629;SDS011;17386;43.846;25.950;2022-12-24T00:26:54;51.42;;;20.65;;
20629;SDS011;17386;43.846;25.950;2022-12-24T00:29:19;58.67;;;21.27;;
20629;SDS011;17386;43.846;25.950;2022-12-24T00:31:45;56.20;;;21.27;;
20629;SDS011;17386;43.846;25.950;2022-12-24T00:34:10;54.72;;;22.67;;
20629;SDS011;17386;43.846;25.950;2022-12-24T00:36:36;46.90;;;20.70;;
20629;SDS011;17386;43.846;25.950;2022-12-24T00:39:01;55.55;;;20.63;;
20629;SDS011;17386;43.846;25.950;2022-12-24T00:41:27;53.80;;;20.92;;
20629;SDS011;17386;43.846;25.950;2022-12-24T00:43:59;50.42;;;20.23;;
20629;SDS011;17386;43.846;25.950;2022-12-24T00:46:27;48.47;;;19.77;;
20629;SDS011;17386;43.846;25.950;2022-12-24T00:48:54;62.30;;;21.83;;
20629;SDS011;17386;43.846;25.950;2022-12-24T00:51:19;53.88;;;21.25;;
20629;SDS011;17386;43.846;25.950;2022-12-24T00:53:46;60.15;;;26.42;;
20629;SDS011;17386;43.846;25.950;2022-12-24T00:56:12;58.92;;;26.90;;
20629;SDS011;17386;43.846;25.950;2022-12-24T00:58:37;133.52;;;89.65;;
20629;SDS011;17386;43.846;25.950;2022-12-24T01:01:03;56.58;;;27.23;;
20629;SDS011;17386;43.846;25.950;2022-12-24T01:03:28;50.70;;;19.95;;
20629;SDS011;17386;43.846;25.950;2022-12-24T01:06:00;49.53;;;20.20;;
20629;SDS011;17386;43.846;25.950;2022-12-24T01:08:30;48.25;;;20.38;;
20629;SDS011;17386;43.846;25.950;2022-12-24T01:10:55;53.85;;;21.55;;
20629;SDS011;17386;43.846;25.950;2022-12-24T01:13:21;47.85;;;20.25;;
20629;SDS011;17386;43.846;25.950;2022-12-24T01:15:47;49.20;;;19.92;;
20629;SDS011;17386;43.846;25.950;2022-12-24T01:18:12;52.45;;;21.15;;
20629;SDS011;17386;43.846;25.950;2022-12-24T01:20:38;58.47;;;22.08;;
20629;SDS011;17386;43.846;25.950;2022-12-24T01:23:03;55.53;;;22.23;;
20629;SDS011;17386;43.846;25.950;2022-12-24T01:25:29;52.15;;;20.73;;
20629;SDS011;17386;43.846;25.950;2022-12-24T01:27:54;50.17;;;19.55;;
20629;SDS011;17386;43.846;25.950;2022-12-24T01:30:20;47.65;;;20.45;;
20629;SDS011;17386;43.846;25.950;2022-12-24T01:32:45;51.85;;;22.73;;
20629;SDS011;17386;43.846;25.950;2022-12-24T01:35:10;55.67;;;23.08;;
20629;SDS011;17386;43.846;25.950;2022-12-24T01:37:36;55.70;;;22.02;;
20629;SDS011;17386;43.846;25.950;2022-12-24T01:40:03;55.75;;;22.05;;
20629;SDS011;17386;43.846;25.950;2022-12-24T01:42:48;57.55;;;21.23;;
20629;SDS011;17386;43.846;25.950;2022-12-24T01:45:40;59.70;;;22.08;;
20629;SDS011;17386;43.846;25.950;2022-12-24T01:48:16;54.53;;;22.08;;
20629;SDS011;17386;43.846;25.950;2022-12-24T01:50:57;52.58;;;21.05;;
20629;SDS011;17386;43.846;25.950;2022-12-24T01:53:30;53.70;;;22.80;;
20629;SDS011;17386;43.846;25.950;2022-12-24T01:55:58;55.25;;;21.33;;
20629;SDS011;17386;43.846;25.950;2022-12-24T01:58:23;47.65;;;19.80;;
20629;SDS011;17386;43.846;25.950;2022-12-24T02:00:50;54.03;;;20.38;;
20629;SDS011;17386;43.846;25.950;2022-12-24T02:03:16;49.22;;;19.75;;
20629;SDS011;17386;43.846;25.950;2022-12-24T02:05:47;51.83;;;20.42;;
20629;SDS011;17386;43.846;25.950;2022-12-24T02:08:16;52.17;;;20.13;;
20629;SDS011;17386;43.846;25.950;2022-12-24T02:10:42;51.53;;;19.27;;
20629;SDS011;17386;43.846;25.950;2022-12-24T02:13:08;52.53;;;19.90;;
20629;SDS011;17386;43.846;25.950;2022-12-24T02:18:36;51.80;;;20.52;;
20629;SDS011;17386;43.846;25.950;2022-12-24T02:29:50;48.92;;;18.58;;
20629;SDS011;17386;43.846;25.950;2022-12-24T02:32:44;45.22;;;17.38;;
20629;SDS011;17386;43.846;25.950;2022-12-24T02:35:47;51.50;;;18.75;;
20629;SDS011;17386;43.846;25.950;2022-12-24T02:41:00;42.45;;;17.38;;
20629;SDS011;17386;43.846;25.950;2022-12-24T02:43:32;49.25;;;18.45;;
20629;SDS011;17386;43.846;25.950;2022-12-24T02:46:15;48.53;;;17.98;;
20629;SDS011;17386;43.846;25.950;2022-12-24T02:48:45;37.95;;;15.95;;
20629;SDS011;17386;43.846;25.950;2022-12-24T02:51:12;46.60;;;17.08;;
20629;SDS011;17386;43.846;25.950;2022-12-24T02:53:38;46.58;;;18.27;;
20629;SDS011;17386;43.846;25.950;2022-12-24T02:58:45;45.40;;;18.23;;
20629;SDS011;17386;43.846;25.950;2022-12-24T03:05:17;44.90;;;17.35;;
20629;SDS011;17386;43.846;25.950;2022-12-24T03:07:22;45.85;;;17.00;;
20629;SDS011;17386;43.846;25.950;2022-12-24T03:12:53;41.63;;;16.30;;
20629;SDS011;17386;43.846;25.950;2022-12-24T03:15:26;41.72;;;16.30;;
20629;SDS011;17386;43.846;25.950;2022-12-24T03:17:55;40.70;;;16.17;;
20629;SDS011;17386;43.846;25.950;2022-12-24T03:20:24;40.85;;;17.55;;
20629;SDS011;17386;43.846;25.950;2022-12-24T03:22:56;46.25;;;17.10;;
20629;SDS011;17386;43.846;25.950;2022-12-24T03:25:21;39.10;;;17.40;;
20629;SDS011;17386;43.846;25.950;2022-12-24T03:27:49;40.63;;;17.13;;
20629;SDS011;17386;43.846;25.950;2022-12-24T03:30:15;42.30;;;17.55;;
20629;SDS011;17386;43.846;25.950;2022-12-24T03:32:42;39.03;;;17.92;;
20629;SDS011;17386;43.846;25.950;2022-12-24T03:35:08;35.50;;;16.70;;
20629;SDS011;17386;43.846;25.950;2022-12-24T03:37:34;45.13;;;17.50;;
20629;SDS011;17386;43.846;25.950;2022-12-24T03:39:59;38.83;;;17.15;;
20629;SDS011;17386;43.846;25.950;2022-12-24T03:42:25;43.05;;;18.85;;
20629;SDS011;17386;43.846;25.950;2022-12-24T03:44:50;43.70;;;18.67;;
20629;SDS011;17386;43.846;25.950;2022-12-24T03:47:16;47.70;;;19.58;;
20629;SDS011;17386;43.846;25.950;2022-12-24T03:49:41;40.25;;;18.40;;
20629;SDS011;17386;43.846;25.950;2022-12-24T03:52:07;43.95;;;18.27;;
20629;SDS011;17386;43.846;25.950;2022-12-24T03:54:32;48.33;;;19.70;;
20629;SDS011;17386;43.846;25.950;2022-12-24T03:56:57;39.65;;;18.35;;
20629;SDS011;17386;43.846;25.950;2022-12-24T03:59:23;42.53;;;18.27;;
20629;SDS011;17386;43.846;25.950;2022-12-24T04:01:48;38.35;;;17.27;;
20629;SDS011;17386;43.846;25.950;2022-12-24T04:04:14;48.60;;;20.13;;
20629;SDS011;17386;43.846;25.950;2022-12-24T04:06:39;51.47;;;20.13;;
20629;SDS011;17386;43.846;25.950;2022-12-24T04:09:05;47.17;;;19.15;;
20629;SDS011;17386;43.846;25.950;2022-12-24T04:11:31;47.20;;;19.10;;
20629;SDS011;17386;43.846;25.950;2022-12-24T04:13:57;46.30;;;20.42;;
20629;SDS011;17386;43.846;25.950;2022-12-24T04:16:22;46.50;;;19.35;;
20629;SDS011;17386;43.846;25.950;2022-12-24T04:18:48;48.03;;;19.48;;
20629;SDS011;17386;43.846;25.950;2022-12-24T04:21:13;53.33;;;20.85;;
20629;SDS011;17386;43.846;25.950;2022-12-24T04:23:39;50.95;;;20.45;;
20629;SDS011;17386;43.846;25.950;2022-12-24T04:26:06;49.13;;;20.73;;
20629;SDS011;17386;43.846;25.950;2022-12-24T04:28:34;44.88;;;18.27;;
20629;SDS011;17386;43.846;25.950;2022-12-24T04:31:01;51.13;;;19.85;;
20629;SDS011;17386;43.846;25.950;2022-12-24T04:33:28;52.05;;;20.20;;
20629;SDS011;17386;43.846;25.950;2022-12-24T04:35:56;48.38;;;19.58;;
20629;SDS011;17386;43.846;25.950;2022-12-24T04:40:47;47.15;;;19.63;;
20629;SDS011;17386;43.846;25.950;2022-12-24T04:43:13;57.10;;;22.27;;
20629;SDS011;17386;43.846;25.950;2022-12-24T04:45:38;52.10;;;20.60;;
20629;SDS011;17386;43.846;25.950;2022-12-24T04:48:04;50.22;;;20.55;;
20629;SDS011;17386;43.846;25.950;2022-12-24T04:50:29;48.20;;;19.27;;
20629;SDS011;17386;43.846;25.950;2022-12-24T04:52:55;43.25;;;18.80;;
20629;SDS011;17386;43.846;25.950;2022-12-24T04:55:20;52.13;;;20.95;;
20629;SDS011;17386;43.846;25.950;2022-12-24T04:57:45;55.38;;;20.92;;
20629;SDS011;17386;43.846;25.950;2022-12-24T05:00:11;53.55;;;21.30;;
20629;SDS011;17386;43.846;25.950;2022-12-24T05:02:37;55.80;;;21.05;;
20629;SDS011;17386;43.846;25.950;2022-12-24T05:05:02;52.40;;;21.00;;
20629;SDS011;17386;43.846;25.950;2022-12-24T05:07:28;52.45;;;20.00;;
20629;SDS011;17386;43.846;25.950;2022-12-24T05:09:53;49.95;;;20.40;;
20629;SDS011;17386;43.846;25.950;2022-12-24T05:12:18;48.45;;;18.67;;
20629;SDS011;17386;43.846;25.950;2022-12-24T05:14:44;49.10;;;18.85;;
20629;SDS011;17386;43.846;25.950;2022-12-24T05:17:09;57.85;;;22.17;;
20629;SDS011;17386;43.846;25.950;2022-12-24T05:19:34;58.88;;;21.85;;
20629;SDS011;17386;43.846;25.950;2022-12-24T05:22:00;49.88;;;22.27;;
20629;SDS011;17386;43.846;25.950;2022-12-24T05:24:44;55.05;;;22.70;;
20629;SDS011;17386;43.846;25.950;2022-12-24T05:27:28;53.25;;;21.30;;
20629;SDS011;17386;43.846;25.950;2022-12-24T05:29:53;59.55;;;22.58;;
20629;SDS011;17386;43.846;25.950;2022-12-24T05:32:19;62.17;;;25.15;;
20629;SDS011;17386;43.846;25.950;2022-12-24T05:34:44;59.05;;;23.33;;
20629;SDS011;17386;43.846;25.950;2022-12-24T05:37:10;47.33;;;19.85;;
20629;SDS011;17386;43.846;25.950;2022-12-24T05:39:35;49.05;;;20.13;;
20629;SDS011;17386;43.846;25.950;2022-12-24T05:42:00;51.03;;;20.48;;
20629;SDS011;17386;43.846;25.950;2022-12-24T05:44:26;47.78;;;20.88;;
20629;SDS011;17386;43.846;25.950;2022-12-24T05:46:51;47.63;;;19.80;;
20629;SDS011;17386;43.846;25.950;2022-12-24T05:49:17;51.47;;;20.70;;
20629;SDS011;17386;43.846;25.950;2022-12-24T05:51:42;47.97;;;19.85;;
20629;SDS011;17386;43.846;25.950;2022-12-24T05:54:07;50.92;;;19.25;;
20629;SDS011;17386;43.846;25.950;2022-12-24T05:56:33;42.22;;;18.48;;
20629;SDS011;17386;43.846;25.950;2022-12-24T05:58:58;51.10;;;19.90;;
20629;SDS011;17386;43.846;25.950;2022-12-24T06:01:24;48.55;;;19.52;;
20629;SDS011;17386;43.846;25.950;2022-12-24T06:03:50;52.50;;;18.80;;
20629;SDS011;17386;43.846;25.950;2022-12-24T06:06:17;54.28;;;21.40;;
20629;SDS011;17386;43.846;25.950;2022-12-24T06:08:45;55.00;;;20.88;;
20629;SDS011;17386;43.846;25.950;2022-12-24T06:11:12;60.63;;;20.67;;
20629;SDS011;17386;43.846;25.950;2022-12-24T06:13:39;50.35;;;19.60;;
20629;SDS011;17386;43.846;25.950;2022-12-24T06:16:05;54.10;;;21.73;;
20629;SDS011;17386;43.846;25.950;2022-12-24T06:18:32;54.35;;;19.90;;
20629;SDS011;17386;43.846;25.950;2022-12-24T06:20:59;52.67;;;20.58;;
20629;SDS011;17386;43.846;25.950;2022-12-24T06:23:25;52.15;;;20.85;;
20629;SDS011;17386;43.846;25.950;2022-12-24T06:25:54;47.47;;;19.58;;
20629;SDS011;17386;43.846;25.950;2022-12-24T06:28:20;55.00;;;21.00;;
20629;SDS011;17386;43.846;25.950;2022-12-24T06:30:46;53.20;;;21.63;;
20629;SDS011;17386;43.846;25.950;2022-12-24T06:33:12;50.78;;;20.60;;
20629;SDS011;17386;43.846;25.950;2022-12-24T06:35:38;46.22;;;18.85;;
20629;SDS011;17386;43.846;25.950;2022-12-24T06:38:04;44.42;;;18.17;;
20629;SDS011;17386;43.846;25.950;2022-12-24T06:40:30;45.42;;;18.70;;
20629;SDS011;17386;43.846;25.950;2022-12-24T06:42:55;50.42;;;19.23;;
20629;SDS011;17386;43.846;25.950;2022-12-24T06:45:21;48.90;;;20.27;;
20629;SDS011;17386;43.846;25.950;2022-12-24T06:47:46;45.72;;;19.25;;
20629;SDS011;17386;43.846;25.950;2022-12-24T06:50:11;47.95;;;18.60;;
20629;SDS011;17386;43.846;25.950;2022-12-24T06:52:37;47.75;;;18.40;;
20629;SDS011;17386;43.846;25.950;2022-12-24T06:55:03;47.10;;;18.45;;
20629;SDS011;17386;43.846;25.950;2022-12-24T06:57:29;51.20;;;19.42;;
20629;SDS011;17386;43.846;25.950;2022-12-24T06:59:56;44.97;;;18.80;;
20629;SDS011;17386;43.846;25.950;2022-12-24T07:02:22;47.60;;;18.88;;
20629;SDS011;17386;43.846;25.950;2022-12-24T07:04:48;40.90;;;18.15;;
20629;SDS011;17386;43.846;25.950;2022-12-24T07:07:13;44.50;;;18.15;;
20629;SDS011;17386;43.846;25.950;2022-12-24T07:09:39;42.88;;;17.42;;
20629;SDS011;17386;43.846;25.950;2022-12-24T07:12:04;41.40;;;17.60;;
20629;SDS011;17386;43.846;25.950;2022-12-24T07:14:30;43.83;;;17.55;;
20629;SDS011;17386;43.846;25.950;2022-12-24T07:16:56;46.25;;;18.45;;
20629;SDS011;17386;43.846;25.950;2022-12-24T07:19:22;43.10;;;18.48;;
20629;SDS011;17386;43.846;25.950;2022-12-24T07:21:48;45.70;;;17.83;;
20629;SDS011;17386;43.846;25.950;2022-12-24T07:24:14;40.58;;;17.90;;
20629;SDS011;17386;43.846;25.950;2022-12-24T07:26:40;43.60;;;17.27;;
20629;SDS011;17386;43.846;25.950;2022-12-24T07:29:05;45.55;;;19.08;;
20629;SDS011;17386;43.846;25.950;2022-12-24T07:31:30;43.47;;;17.50;;
20629;SDS011;17386;43.846;25.950;2022-12-24T07:33:56;41.45;;;17.90;;
20629;SDS011;17386;43.846;25.950;2022-12-24T07:36:22;43.63;;;17.67;;
20629;SDS011;17386;43.846;25.950;2022-12-24T07:38:47;43.20;;;20.35;;
20629;SDS011;17386;43.846;25.950;2022-12-24T07:41:13;44.95;;;17.98;;
20629;SDS011;17386;43.846;25.950;2022-12-24T07:43:39;38.60;;;16.10;;
20629;SDS011;17386;43.846;25.950;2022-12-24T07:46:04;41.53;;;16.70;;
20629;SDS011;17386;43.846;25.950;2022-12-24T07:48:30;38.88;;;15.90;;
20629;SDS011;17386;43.846;25.950;2022-12-24T07:50:57;38.17;;;16.27;;
20629;SDS011;17386;43.846;25.950;2022-12-24T07:53:23;44.13;;;18.38;;
20629;SDS011;17386;43.846;25.950;2022-12-24T07:55:49;51.85;;;19.52;;
20629;SDS011;17386;43.846;25.950;2022-12-24T07:58:15;57.03;;;21.02;;
20629;SDS011;17386;43.846;25.950;2022-12-24T08:00:41;48.97;;;20.15;;
20629;SDS011;17386;43.846;25.950;2022-12-24T08:03:08;47.78;;;18.77;;
20629;SDS011;17386;43.846;25.950;2022-12-24T08:05:40;46.22;;;18.55;;
20629;SDS011;17386;43.846;25.950;2022-12-24T08:08:05;46.70;;;18.42;;
20629;SDS011;17386;43.846;25.950;2022-12-24T08:10:31;47.45;;;19.70;;
20629;SDS011;17386;43.846;25.950;2022-12-24T08:12:56;46.53;;;19.83;;
20629;SDS011;17386;43.846;25.950;2022-12-24T08:15:22;40.30;;;17.48;;
20629;SDS011;17386;43.846;25.950;2022-12-24T08:17:47;43.53;;;17.40;;
20629;SDS011;17386;43.846;25.950;2022-12-24T08:20:13;53.72;;;19.65;;
20629;SDS011;17386;43.846;25.950;2022-12-24T08:22:40;47.28;;;18.85;;
20629;SDS011;17386;43.846;25.950;2022-12-24T08:25:05;47.00;;;20.20;;
20629;SDS011;17386;43.846;25.950;2022-12-24T08:27:31;50.03;;;18.88;;
20629;SDS011;17386;43.846;25.950;2022-12-24T08:29:57;46.72;;;18.95;;
20629;SDS011;17386;43.846;25.950;2022-12-24T08:32:22;49.58;;;20.00;;
20629;SDS011;17386;43.846;25.950;2022-12-24T08:34:47;49.03;;;19.08;;
20629;SDS011;17386;43.846;25.950;2022-12-24T08:37:13;45.95;;;19.52;;
20629;SDS011;17386;43.846;25.950;2022-12-24T08:39:38;50.60;;;21.15;;
20629;SDS011;17386;43.846;25.950;2022-12-24T08:42:03;46.20;;;19.02;;
20629;SDS011;17386;43.846;25.950;2022-12-24T08:44:29;43.53;;;18.98;;
20629;SDS011;17386;43.846;25.950;2022-12-24T08:46:54;39.75;;;16.27;;
20629;SDS011;17386;43.846;25.950;2022-12-24T08:49:20;41.80;;;17.05;;
20629;SDS011;17386;43.846;25.950;2022-12-24T08:51:45;44.25;;;17.63;;
20629;SDS011;17386;43.846;25.950;2022-12-24T08:54:10;42.60;;;18.80;;
20629;SDS011;17386;43.846;25.950;2022-12-24T08:56:36;44.13;;;18.80;;
20629;SDS011;17386;43.846;25.950;2022-12-24T08:59:01;40.00;;;17.70;;
20629;SDS011;17386;43.846;25.950;2022-12-24T09:01:27;38.53;;;15.45;;
20629;SDS011;17386;43.846;25.950;2022-12-24T09:03:52;32.88;;;15.68;;
20629;SDS011;17386;43.846;25.950;2022-12-24T09:06:18;31.25;;;13.93;;
20629;SDS011;17386;43.846;25.950;2022-12-24T09:08:44;33.20;;;14.25;;
20629;SDS011;17386;43.846;25.950;2022-12-24T09:11:10;31.45;;;13.80;;
20629;SDS011;17386;43.846;25.950;2022-12-24T09:13:38;36.38;;;16.02;;
20629;SDS011;17386;43.846;25.950;2022-12-24T09:16:04;32.50;;;14.98;;
20629;SDS011;17386;43.846;25.950;2022-12-24T09:18:30;36.80;;;16.38;;
20629;SDS011;17386;43.846;25.950;2022-12-24T09:20:59;38.95;;;17.30;;
20629;SDS011;17386;43.846;25.950;2022-12-24T09:23:25;39.90;;;16.27;;
20629;SDS011;17386;43.846;25.950;2022-12-24T09:25:51;37.92;;;16.90;;
20629;SDS011;17386;43.846;25.950;2022-12-24T09:28:16;34.50;;;15.90;;
20629;SDS011;17386;43.846;25.950;2022-12-24T09:30:42;39.67;;;17.25;;
20629;SDS011;17386;43.846;25.950;2022-12-24T09:33:07;62.90;;;20.48;;
20629;SDS011;17386;43.846;25.950;2022-12-24T09:35:33;42.50;;;15.77;;
20629;SDS011;17386;43.846;25.950;2022-12-24T09:37:58;39.45;;;16.30;;
20629;SDS011;17386;43.846;25.950;2022-12-24T09:40:37;37.70;;;16.10;;
20629;SDS011;17386;43.846;25.950;2022-12-24T09:43:05;36.05;;;15.25;;
20629;SDS011;17386;43.846;25.950;2022-12-24T09:45:39;34.50;;;15.18;;
20629;SDS011;17386;43.846;25.950;2022-12-24T09:48:10;39.42;;;15.68;;
20629;SDS011;17386;43.846;25.950;2022-12-24T09:56:30;32.25;;;14.80;;
20629;SDS011;17386;43.846;25.950;2022-12-24T09:59:04;38.88;;;17.02;;
20629;SDS011;17386;43.846;25.950;2022-12-24T10:01:34;32.63;;;16.08;;
20629;SDS011;17386;43.846;25.950;2022-12-24T10:04:21;35.78;;;15.57;;
20629;SDS011;17386;43.846;25.950;2022-12-24T10:09:40;36.72;;;16.25;;
20629;SDS011;17386;43.846;25.950;2022-12-24T10:18:32;31.77;;;14.65;;
20629;SDS011;17386;43.846;25.950;2022-12-24T10:20:47;28.30;;;13.60;;
20629;SDS011;17386;43.846;25.950;2022-12-24T10:23:22;25.92;;;12.32;;
20629;SDS011;17386;43.846;25.950;2022-12-24T10:31:39;24.63;;;12.18;;
20629;SDS011;17386;43.846;25.950;2022-12-24T10:34:15;27.38;;;12.25;;
20629;SDS011;17386;43.846;25.950;2022-12-24T10:36:43;27.00;;;12.93;;
20629;SDS011;17386;43.846;25.950;2022-12-24T10:39:12;27.27;;;12.52;;
20629;SDS011;17386;43.846;25.950;2022-12-24T10:41:45;23.88;;;12.40;;
20629;SDS011;17386;43.846;25.950;2022-12-24T10:44:15;26.58;;;12.80;;
20629;SDS011;17386;43.846;25.950;2022-12-24T10:46:44;26.80;;;12.57;;
20629;SDS011;17386;43.846;25.950;2022-12-24T10:50:12;26.67;;;12.93;;
20629;SDS011;17386;43.846;25.950;2022-12-24T10:52:10;29.08;;;13.07;;
20629;SDS011;17386;43.846;25.950;2022-12-24T10:54:54;28.70;;;13.23;;
20629;SDS011;17386;43.846;25.950;2022-12-24T10:57:32;26.77;;;13.07;;
20629;SDS011;17386;43.846;25.950;2022-12-24T10:59:58;29.90;;;14.27;;
20629;SDS011;17386;43.846;25.950;2022-12-24T11:02:35;29.88;;;13.57;;
20629;SDS011;17386;43.846;25.950;2022-12-24T11:05:03;27.23;;;13.30;;
20629;SDS011;17386;43.846;25.950;2022-12-24T11:07:32;26.80;;;12.93;;
20629;SDS011;17386;43.846;25.950;2022-12-24T11:10:02;27.42;;;13.27;;
20629;SDS011;17386;43.846;25.950;2022-12-24T11:12:39;25.52;;;12.40;;
20629;SDS011;17386;43.846;25.950;2022-12-24T11:17:51;29.27;;;13.90;;
20629;SDS011;17386;43.846;25.950;2022-12-24T11:20:27;26.00;;;12.82;;
20629;SDS011;17386;43.846;25.950;2022-12-24T11:22:54;24.83;;;13.45;;
20629;SDS011;17386;43.846;25.950;2022-12-24T11:25:21;26.95;;;13.30;;
20629;SDS011;17386;43.846;25.950;2022-12-24T11:28:40;31.05;;;13.88;;
20629;SDS011;17386;43.846;25.950;2022-12-24T11:31:01;29.60;;;13.82;;
20629;SDS011;17386;43.846;25.950;2022-12-24T11:33:29;27.98;;;13.43;;
20629;SDS011;17386;43.846;25.950;2022-12-24T11:36:03;28.05;;;12.70;;
20629;SDS011;17386;43.846;25.950;2022-12-24T11:38:31;24.88;;;12.63;;
20629;SDS011;17386;43.846;25.950;2022-12-24T11:43:33;31.02;;;13.05;;
20629;SDS011;17386;43.846;25.950;2022-12-24T11:46:16;24.75;;;12.15;;
20629;SDS011;17386;43.846;25.950;2022-12-24T11:48:44;26.38;;;12.68;;
20629;SDS011;17386;43.846;25.950;2022-12-24T11:51:23;25.52;;;12.23;;
20629;SDS011;17386;43.846;25.950;2022-12-24T11:53:55;29.63;;;13.15;;
20629;SDS011;17386;43.846;25.950;2022-12-24T11:56:28;29.13;;;13.57;;
20629;SDS011;17386;43.846;25.950;2022-12-24T11:59:21;33.20;;;14.45;;
20629;SDS011;17386;43.846;25.950;2022-12-24T12:01:57;33.75;;;14.82;;
20629;SDS011;17386;43.846;25.950;2022-12-24T12:04:27;29.48;;;13.85;;
20629;SDS011;17386;43.846;25.950;2022-12-24T12:07:13;28.55;;;13.23;;
20629;SDS011;17386;43.846;25.950;2022-12-24T12:09:47;29.52;;;13.68;;
20629;SDS011;17386;43.846;25.950;2022-12-24T12:12:30;27.00;;;13.32;;
20629;SDS011;17386;43.846;25.950;2022-12-24T12:15:04;32.75;;;15.27;;
20629;SDS011;17386;43.846;25.950;2022-12-24T12:17:38;30.92;;;14.73;;
20629;SDS011;17386;43.846;25.950;2022-12-24T12:25:16;26.58;;;12.15;;
20629;SDS011;17386;43.846;25.950;2022-12-24T12:27:47;31.15;;;13.73;;
20629;SDS011;17386;43.846;25.950;2022-12-24T12:30:17;28.30;;;12.98;;
20629;SDS011;17386;43.846;25.950;2022-12-24T12:35:51;26.90;;;13.02;;
20629;SDS011;17386;43.846;25.950;2022-12-24T12:38:22;27.38;;;13.27;;
20629;SDS011;17386;43.846;25.950;2022-12-24T12:56:39;26.17;;;12.77;;
20629;SDS011;17386;43.846;25.950;2022-12-24T13:02:09;26.23;;;12.30;;
20629;SDS011;17386;43.846;25.950;2022-12-24T13:05:00;30.45;;;13.85;;
20629;SDS011;17386;43.846;25.950;2022-12-24T13:16:05;29.27;;;13.57;;
20629;SDS011;17386;43.846;25.950;2022-12-24T13:21:53;26.95;;;12.35;;
20629;SDS011;17386;43.846;25.950;2022-12-24T13:24:20;27.08;;;12.40;;
20629;SDS011;17386;43.846;25.950;2022-12-24T13:34:46;28.67;;;12.93;;
20629;SDS011;17386;43.846;25.950;2022-12-24T13:40:06;30.63;;;13.13;;
20629;SDS011;17386;43.846;25.950;2022-12-24T13:48:16;25.95;;;12.32;;
20629;SDS011;17386;43.846;25.950;2022-12-24T13:50:52;26.63;;;13.20;;
20629;SDS011;17386;43.846;25.950;2022-12-24T13:53:35;30.40;;;13.68;;
20629;SDS011;17386;43.846;25.950;2022-12-24T13:56:18;31.83;;;12.45;;
20629;SDS011;17386;43.846;25.950;2022-12-24T13:58:52;24.33;;;11.50;;
20629;SDS011;17386;43.846;25.950;2022-12-24T14:01:34;27.35;;;12.80;;
20629;SDS011;17386;43.846;25.950;2022-12-24T14:04:03;25.48;;;11.45;;
20629;SDS011;17386;43.846;25.950;2022-12-24T14:06:31;24.65;;;11.05;;
20629;SDS011;17386;43.846;25.950;2022-12-24T14:12:13;25.50;;;10.23;;
20629;SDS011;17386;43.846;25.950;2022-12-24T14:14:35;21.02;;;9.50;;
20629;SDS011;17386;43.846;25.950;2022-12-24T14:19:43;26.48;;;12.00;;
20629;SDS011;17386;43.846;25.950;2022-12-24T14:32:43;26.75;;;13.60;;
20629;SDS011;17386;43.846;25.950;2022-12-24T14:37:49;26.05;;;13.48;;
20629;SDS011;17386;43.846;25.950;2022-12-24T14:40:21;28.25;;;13.95;;
20629;SDS011;17386;43.846;25.950;2022-12-24T14:42:53;30.05;;;16.05;;
20629;SDS011;17386;43.846;25.950;2022-12-24T14:45:37;33.97;;;16.95;;
20629;SDS011;17386;43.846;25.950;2022-12-24T14:48:34;30.08;;;14.40;;
20629;SDS011;17386;43.846;25.950;2022-12-24T14:56:29;21.42;;;9.77;;
20629;SDS011;17386;43.846;25.950;2022-12-24T14:58:55;17.98;;;8.68;;
20629;SDS011;17386;43.846;25.950;2022-12-24T15:01:26;20.58;;;10.55;;
20629;SDS011;17386;43.846;25.950;2022-12-24T15:06:25;25.83;;;13.13;;
20629;SDS011;17386;43.846;25.950;2022-12-24T15:08:52;23.27;;;12.07;;
20629;SDS011;17386;43.846;25.950;2022-12-24T15:11:18;25.23;;;11.38;;
20629;SDS011;17386;43.846;25.950;2022-12-24T15:13:47;18.83;;;9.55;;
20629;SDS011;17386;43.846;25.950;2022-12-24T15:16:27;16.42;;;7.70;;
20629;SDS011;17386;43.846;25.950;2022-12-24T15:18:56;25.17;;;9.75;;
20629;SDS011;17386;43.846;25.950;2022-12-24T15:21:32;17.45;;;6.90;;
20629;SDS011;17386;43.846;25.950;2022-12-24T15:24:01;11.60;;;5.28;;
20629;SDS011;17386;43.846;25.950;2022-12-24T15:29:05;11.70;;;5.22;;
20629;SDS011;17386;43.846;25.950;2022-12-24T15:31:41;9.32;;;4.55;;
20629;SDS011;17386;43.846;25.950;2022-12-24T15:34:22;11.70;;;5.53;;
20629;SDS011;17386;43.846;25.950;2022-12-24T15:36:50;13.25;;;6.30;;
20629;SDS011;17386;43.846;25.950;2022-12-24T15:39:16;15.40;;;6.43;;
20629;SDS011;17386;43.846;25.950;2022-12-24T15:41:42;13.05;;;5.95;;
20629;SDS011;17386;43.846;25.950;2022-12-24T15:44:30;12.23;;;7.18;;
20629;SDS011;17386;43.846;25.950;2022-12-24T15:46:59;13.63;;;6.50;;
20629;SDS011;17386;43.846;25.950;2022-12-24T15:49:26;11.25;;;6.00;;
20629;SDS011;17386;43.846;25.950;2022-12-24T15:52:00;9.80;;;4.55;;
20629;SDS011;17386;43.846;25.950;2022-12-24T15:54:27;10.63;;;5.55;;
20629;SDS011;17386;43.846;25.950;2022-12-24T15:56:53;11.00;;;5.63;;
20629;SDS011;17386;43.846;25.950;2022-12-24T16:01:53;11.20;;;5.97;;
20629;SDS011;17386;43.846;25.950;2022-12-24T16:04:23;12.90;;;5.80;;
20629;SDS011;17386;43.846;25.950;2022-12-24T16:06:52;11.00;;;5.72;;
20629;SDS011;17386;43.846;25.950;2022-12-24T16:12:20;12.15;;;5.70;;
20629;SDS011;17386;43.846;25.950;2022-12-24T16:14:48;12.07;;;6.03;;
20629;SDS011;17386;43.846;25.950;2022-12-24T16:17:21;13.00;;;6.50;;
20629;SDS011;17386;43.846;25.950;2022-12-24T16:19:49;13.18;;;6.78;;
20629;SDS011;17386;43.846;25.950;2022-12-24T16:22:18;13.32;;;6.88;;
20629;SDS011;17386;43.846;25.950;2022-12-24T16:25:19;14.55;;;7.20;;
20629;SDS011;17386;43.846;25.950;2022-12-24T16:27:50;15.02;;;7.38;;
20629;SDS011;17386;43.846;25.950;2022-12-24T16:30:17;17.75;;;7.72;;
20629;SDS011;17386;43.846;25.950;2022-12-24T16:32:43;16.70;;;7.90;;
20629;SDS011;17386;43.846;25.950;2022-12-24T16:35:26;18.25;;;8.30;;
20629;SDS011;17386;43.846;25.950;2022-12-24T16:37:57;15.10;;;7.82;;
20629;SDS011;17386;43.846;25.950;2022-12-24T16:40:23;18.60;;;8.15;;
20629;SDS011;17386;43.846;25.950;2022-12-24T16:42:48;15.45;;;8.27;;